sensor_id;sensor_type;location;lat;lon;timestamp;temperature;humidity
29803;DHT22;16702;50.898;4.662;2022-10-22T00:01:10;17.20;99.90
29803;DHT22;16702;50.898;4.662;2022-10-22T00:03:41;17.20;99.90
29803;DHT22;16702;50.898;4.662;2022-10-22T00:06:11;17.20;99.90
29803;DHT22;16702;50.898;4.662;2022-10-22T00:08:44;17.20;99.90
29803;DHT22;16702;50.898;4.662;2022-10-22T00:11:16;17.20;99.90
29803;DHT22;16702;50.898;4.662;2022-10-22T00:13:47;17.20;99.90
29803;DHT22;16702;50.898;4.662;2022-10-22T00:16:18;17.20;99.90
29803;DHT22;16702;50.898;4.662;2022-10-22T00:18:48;17.10;99.90
29803;DHT22;16702;50.898;4.662;2022-10-22T00:21:18;17.20;99.90
29803;DHT22;16702;50.898;4.662;2022-10-22T00:23:51;17.20;99.90
29803;DHT22;16702;50.898;4.662;2022-10-22T00:26:22;17.10;99.90
29803;DHT22;16702;50.898;4.662;2022-10-22T00:28:53;17.10;99.90
29803;DHT22;16702;50.898;4.662;2022-10-22T00:31:23;17.20;99.90
29803;DHT22;16702;50.898;4.662;2022-10-22T00:33:54;17.10;99.90
29803;DHT22;16702;50.898;4.662;2022-10-22T00:36:24;17.10;99.90
29803;DHT22;16702;50.898;4.662;2022-10-22T00:38:57;17.10;99.90
29803;DHT22;16702;50.898;4.662;2022-10-22T00:41:27;17.10;99.90
29803;DHT22;16702;50.898;4.662;2022-10-22T00:43:59;17.10;99.90
29803;DHT22;16702;50.898;4.662;2022-10-22T00:46:30;17.10;99.90
29803;DHT22;16702;50.898;4.662;2022-10-22T00:49:02;17.00;99.90
29803;DHT22;16702;50.898;4.662;2022-10-22T00:51:33;17.00;99.90
29803;DHT22;16702;50.898;4.662;2022-10-22T00:54:07;17.10;99.90
29803;DHT22;16702;50.898;4.662;2022-10-22T00:56:38;17.10;99.90
29803;DHT22;16702;50.898;4.662;2022-10-22T00:59:09;17.10;99.90
29803;DHT22;16702;50.898;4.662;2022-10-22T01:01:40;17.00;99.90
29803;DHT22;16702;50.898;4.662;2022-10-22T01:04:11;17.00;99.90
29803;DHT22;16702;50.898;4.662;2022-10-22T01:06:42;17.00;99.90
29803;DHT22;16702;50.898;4.662;2022-10-22T01:09:22;17.00;99.90
29803;DHT22;16702;50.898;4.662;2022-10-22T01:12:01;17.00;99.90
29803;DHT22;16702;50.898;4.662;2022-10-22T01:14:38;17.00;99.90
29803;DHT22;16702;50.898;4.662;2022-10-22T01:17:16;16.90;99.90
29803;DHT22;16702;50.898;4.662;2022-10-22T01:19:59;17.00;99.90
29803;DHT22;16702;50.898;4.662;2022-10-22T01:22:36;16.90;99.90
29803;DHT22;16702;50.898;4.662;2022-10-22T01:25:15;17.00;99.90
29803;DHT22;16702;50.898;4.662;2022-10-22T01:27:54;16.90;99.90
29803;DHT22;16702;50.898;4.662;2022-10-22T01:30:30;16.90;99.90
29803;DHT22;16702;50.898;4.662;2022-10-22T01:33:05;16.90;99.90
29803;DHT22;16702;50.898;4.662;2022-10-22T01:35:39;16.90;99.90
29803;DHT22;16702;50.898;4.662;2022-10-22T01:38:13;16.90;99.90
29803;DHT22;16702;50.898;4.662;2022-10-22T01:40:44;16.90;99.90
29803;DHT22;16702;50.898;4.662;2022-10-22T01:43:15;16.90;99.90
29803;DHT22;16702;50.898;4.662;2022-10-22T01:45:50;16.90;99.90
29803;DHT22;16702;50.898;4.662;2022-10-22T01:48:29;16.80;99.90
29803;DHT22;16702;50.898;4.662;2022-10-22T01:51:23;16.80;99.90
29803;DHT22;16702;50.898;4.662;2022-10-22T01:53:59;16.80;99.90
29803;DHT22;16702;50.898;4.662;2022-10-22T01:56:43;16.80;99.90
29803;DHT22;16702;50.898;4.662;2022-10-22T01:59:21;16.80;99.90
29803;DHT22;16702;50.898;4.662;2022-10-22T02:01:58;16.80;99.90
29803;DHT22;16702;50.898;4.662;2022-10-22T02:04:37;16.80;99.90
29803;DHT22;16702;50.898;4.662;2022-10-22T02:07:13;16.80;99.90
29803;DHT22;16702;50.898;4.662;2022-10-22T02:09:45;16.80;99.90
29803;DHT22;16702;50.898;4.662;2022-10-22T02:12:17;16.80;99.90
29803;DHT22;16702;50.898;4.662;2022-10-22T02:14:48;16.80;99.90
29803;DHT22;16702;50.898;4.662;2022-10-22T02:17:22;16.70;99.90
29803;DHT22;16702;50.898;4.662;2022-10-22T02:19:56;16.70;99.90
29803;DHT22;16702;50.898;4.662;2022-10-22T02:22:28;16.70;99.90
29803;DHT22;16702;50.898;4.662;2022-10-22T02:24:59;16.70;99.90
29803;DHT22;16702;50.898;4.662;2022-10-22T02:27:32;16.70;99.90
29803;DHT22;16702;50.898;4.662;2022-10-22T02:30:08;16.60;99.90
29803;DHT22;16702;50.898;4.662;2022-10-22T02:32:44;16.70;99.90
29803;DHT22;16702;50.898;4.662;2022-10-22T02:35:19;16.70;99.90
29803;DHT22;16702;50.898;4.662;2022-10-22T02:37:50;16.70;99.90
29803;DHT22;16702;50.898;4.662;2022-10-22T02:40:22;16.60;99.90
29803;DHT22;16702;50.898;4.662;2022-10-22T02:42:53;16.60;99.90
29803;DHT22;16702;50.898;4.662;2022-10-22T02:45:23;16.60;99.90
29803;DHT22;16702;50.898;4.662;2022-10-22T02:47:57;16.60;99.90
29803;DHT22;16702;50.898;4.662;2022-10-22T02:50:27;16.60;99.90
29803;DHT22;16702;50.898;4.662;2022-10-22T02:52:57;16.60;99.90
29803;DHT22;16702;50.898;4.662;2022-10-22T02:55:28;16.60;99.90
29803;DHT22;16702;50.898;4.662;2022-10-22T02:57:58;16.60;99.90
29803;DHT22;16702;50.898;4.662;2022-10-22T03:00:28;16.60;99.90
29803;DHT22;16702;50.898;4.662;2022-10-22T03:03:01;16.60;99.90
29803;DHT22;16702;50.898;4.662;2022-10-22T03:05:31;16.50;99.90
29803;DHT22;16702;50.898;4.662;2022-10-22T03:08:02;16.60;99.90
29803;DHT22;16702;50.898;4.662;2022-10-22T03:10:32;16.50;99.90
29803;DHT22;16702;50.898;4.662;2022-10-22T03:13:02;16.60;99.90
29803;DHT22;16702;50.898;4.662;2022-10-22T03:15:33;16.50;99.90
29803;DHT22;16702;50.898;4.662;2022-10-22T03:18:06;16.50;99.90
29803;DHT22;16702;50.898;4.662;2022-10-22T03:20:36;16.50;99.90
29803;DHT22;16702;50.898;4.662;2022-10-22T03:23:06;16.50;99.90
29803;DHT22;16702;50.898;4.662;2022-10-22T03:25:39;16.50;99.90
29803;DHT22;16702;50.898;4.662;2022-10-22T03:28:12;16.40;99.90
29803;DHT22;16702;50.898;4.662;2022-10-22T03:30:44;16.50;99.90
29803;DHT22;16702;50.898;4.662;2022-10-22T03:33:17;16.50;99.90
29803;DHT22;16702;50.898;4.662;2022-10-22T03:35:47;16.50;99.90
29803;DHT22;16702;50.898;4.662;2022-10-22T03:38:18;16.40;99.90
29803;DHT22;16702;50.898;4.662;2022-10-22T03:40:48;16.40;99.90
29803;DHT22;16702;50.898;4.662;2022-10-22T03:43:19;16.40;99.90
29803;DHT22;16702;50.898;4.662;2022-10-22T03:45:49;16.40;99.90
29803;DHT22;16702;50.898;4.662;2022-10-22T03:48:22;16.40;99.90
29803;DHT22;16702;50.898;4.662;2022-10-22T03:50:52;16.40;99.90
29803;DHT22;16702;50.898;4.662;2022-10-22T03:53:23;16.40;99.90
29803;DHT22;16702;50.898;4.662;2022-10-22T03:55:53;16.40;99.90
29803;DHT22;16702;50.898;4.662;2022-10-22T03:58:23;16.40;99.90
29803;DHT22;16702;50.898;4.662;2022-10-22T04:00:53;16.40;99.90
29803;DHT22;16702;50.898;4.662;2022-10-22T04:03:26;16.40;99.90
29803;DHT22;16702;50.898;4.662;2022-10-22T04:06:00;16.40;99.90
29803;DHT22;16702;50.898;4.662;2022-10-22T04:08:31;16.40;99.90
29803;DHT22;16702;50.898;4.662;2022-10-22T04:11:02;16.40;99.90
29803;DHT22;16702;50.898;4.662;2022-10-22T04:13:32;16.40;99.90
29803;DHT22;16702;50.898;4.662;2022-10-22T04:16:09;16.40;99.90
29803;DHT22;16702;50.898;4.662;2022-10-22T04:18:43;16.40;99.90
29803;DHT22;16702;50.898;4.662;2022-10-22T04:21:16;16.40;99.90
29803;DHT22;16702;50.898;4.662;2022-10-22T04:23:47;16.40;99.90
29803;DHT22;16702;50.898;4.662;2022-10-22T04:26:18;16.30;99.90
29803;DHT22;16702;50.898;4.662;2022-10-22T04:28:50;16.30;99.90
29803;DHT22;16702;50.898;4.662;2022-10-22T04:31:22;16.30;99.90
29803;DHT22;16702;50.898;4.662;2022-10-22T04:33:56;16.40;99.90
29803;DHT22;16702;50.898;4.662;2022-10-22T04:36:27;16.30;99.90
29803;DHT22;16702;50.898;4.662;2022-10-22T04:38:59;16.30;99.90
29803;DHT22;16702;50.898;4.662;2022-10-22T04:41:31;16.30;99.90
29803;DHT22;16702;50.898;4.662;2022-10-22T04:44:02;16.30;99.90
29803;DHT22;16702;50.898;4.662;2022-10-22T04:46:39;16.20;99.90
29803;DHT22;16702;50.898;4.662;2022-10-22T04:49:12;16.20;99.90
29803;DHT22;16702;50.898;4.662;2022-10-22T04:51:43;16.20;99.90
29803;DHT22;16702;50.898;4.662;2022-10-22T04:54:13;16.20;99.90
29803;DHT22;16702;50.898;4.662;2022-10-22T04:56:43;16.20;99.90
29803;DHT22;16702;50.898;4.662;2022-10-22T04:59:13;16.20;99.90
29803;DHT22;16702;50.898;4.662;2022-10-22T05:01:44;16.20;99.90
29803;DHT22;16702;50.898;4.662;2022-10-22T05:04:17;16.20;99.90
29803;DHT22;16702;50.898;4.662;2022-10-22T05:06:48;16.10;99.90
29803;DHT22;16702;50.898;4.662;2022-10-22T05:09:19;16.20;99.90
29803;DHT22;16702;50.898;4.662;2022-10-22T05:11:51;16.20;99.90
29803;DHT22;16702;50.898;4.662;2022-10-22T05:14:23;16.20;99.90
29803;DHT22;16702;50.898;4.662;2022-10-22T05:16:54;16.20;99.90
29803;DHT22;16702;50.898;4.662;2022-10-22T05:19:29;16.20;99.90
29803;DHT22;16702;50.898;4.662;2022-10-22T05:22:01;16.20;99.90
29803;DHT22;16702;50.898;4.662;2022-10-22T05:24:33;16.20;99.90
29803;DHT22;16702;50.898;4.662;2022-10-22T05:27:03;16.20;99.90
29803;DHT22;16702;50.898;4.662;2022-10-22T05:29:34;16.20;99.90
29803;DHT22;16702;50.898;4.662;2022-10-22T05:32:04;16.20;99.90
29803;DHT22;16702;50.898;4.662;2022-10-22T05:34:37;16.20;99.90
29803;DHT22;16702;50.898;4.662;2022-10-22T05:37:07;16.20;99.90
29803;DHT22;16702;50.898;4.662;2022-10-22T05:39:38;16.20;99.90
29803;DHT22;16702;50.898;4.662;2022-10-22T05:42:08;16.20;99.90
29803;DHT22;16702;50.898;4.662;2022-10-22T05:44:38;16.20;99.90
29803;DHT22;16702;50.898;4.662;2022-10-22T05:47:08;16.20;99.90
29803;DHT22;16702;50.898;4.662;2022-10-22T05:49:41;16.20;99.90
29803;DHT22;16702;50.898;4.662;2022-10-22T05:52:11;16.20;99.90
29803;DHT22;16702;50.898;4.662;2022-10-22T05:54:42;16.20;99.90
29803;DHT22;16702;50.898;4.662;2022-10-22T05:57:12;16.30;99.90
29803;DHT22;16702;50.898;4.662;2022-10-22T05:59:42;16.30;99.90
29803;DHT22;16702;50.898;4.662;2022-10-22T06:02:13;16.20;99.90
29803;DHT22;16702;50.898;4.662;2022-10-22T06:04:46;16.20;99.90
29803;DHT22;16702;50.898;4.662;2022-10-22T06:07:17;16.20;99.90
29803;DHT22;16702;50.898;4.662;2022-10-22T06:09:47;16.20;99.90
29803;DHT22;16702;50.898;4.662;2022-10-22T06:12:20;16.20;99.90
29803;DHT22;16702;50.898;4.662;2022-10-22T06:14:50;16.20;99.90
29803;DHT22;16702;50.898;4.662;2022-10-22T06:17:20;16.20;99.90
29803;DHT22;16702;50.898;4.662;2022-10-22T06:19:53;16.20;99.90
29803;DHT22;16702;50.898;4.662;2022-10-22T06:22:23;16.20;99.90
29803;DHT22;16702;50.898;4.662;2022-10-22T06:24:54;16.20;99.90
29803;DHT22;16702;50.898;4.662;2022-10-22T06:27:24;16.10;99.90
29803;DHT22;16702;50.898;4.662;2022-10-22T06:29:54;16.10;99.90
29803;DHT22;16702;50.898;4.662;2022-10-22T06:32:25;16.20;99.90
29803;DHT22;16702;50.898;4.662;2022-10-22T06:34:57;16.20;99.90
29803;DHT22;16702;50.898;4.662;2022-10-22T06:37:28;16.20;99.90
29803;DHT22;16702;50.898;4.662;2022-10-22T06:39:58;16.20;99.90
29803;DHT22;16702;50.898;4.662;2022-10-22T06:42:28;16.20;99.90
29803;DHT22;16702;50.898;4.662;2022-10-22T06:44:59;16.20;99.90
29803;DHT22;16702;50.898;4.662;2022-10-22T06:47:29;16.20;99.90
29803;DHT22;16702;50.898;4.662;2022-10-22T06:50:02;16.20;99.90
29803;DHT22;16702;50.898;4.662;2022-10-22T06:52:33;16.20;99.90
29803;DHT22;16702;50.898;4.662;2022-10-22T06:55:04;16.20;99.90
29803;DHT22;16702;50.898;4.662;2022-10-22T06:57:34;16.20;99.90
29803;DHT22;16702;50.898;4.662;2022-10-22T07:00:06;16.20;99.90
29803;DHT22;16702;50.898;4.662;2022-10-22T07:02:37;16.20;99.90
29803;DHT22;16702;50.898;4.662;2022-10-22T07:05:10;16.20;99.90
29803;DHT22;16702;50.898;4.662;2022-10-22T07:07:41;16.20;99.90
29803;DHT22;16702;50.898;4.662;2022-10-22T07:10:11;16.20;99.90
29803;DHT22;16702;50.898;4.662;2022-10-22T07:12:42;16.20;99.90
29803;DHT22;16702;50.898;4.662;2022-10-22T07:15:12;16.30;99.90
29803;DHT22;16702;50.898;4.662;2022-10-22T07:17:42;16.20;99.90
29803;DHT22;16702;50.898;4.662;2022-10-22T07:20:16;16.30;99.90
29803;DHT22;16702;50.898;4.662;2022-10-22T07:22:47;16.30;99.90
29803;DHT22;16702;50.898;4.662;2022-10-22T07:25:18;16.30;99.90
29803;DHT22;16702;50.898;4.662;2022-10-22T07:27:48;16.30;99.90
29803;DHT22;16702;50.898;4.662;2022-10-22T07:30:18;16.30;99.90
29803;DHT22;16702;50.898;4.662;2022-10-22T07:32:48;16.30;99.90
29803;DHT22;16702;50.898;4.662;2022-10-22T07:35:21;16.30;99.90
29803;DHT22;16702;50.898;4.662;2022-10-22T07:37:52;16.30;99.90
29803;DHT22;16702;50.898;4.662;2022-10-22T07:40:22;16.30;99.90
29803;DHT22;16702;50.898;4.662;2022-10-22T07:42:52;16.30;99.90
29803;DHT22;16702;50.898;4.662;2022-10-22T07:45:23;16.30;99.90
29803;DHT22;16702;50.898;4.662;2022-10-22T07:47:53;16.40;99.90
29803;DHT22;16702;50.898;4.662;2022-10-22T07:50:26;16.30;99.90
29803;DHT22;16702;50.898;4.662;2022-10-22T07:52:56;16.30;99.90
29803;DHT22;16702;50.898;4.662;2022-10-22T07:55:27;16.40;99.90
29803;DHT22;16702;50.898;4.662;2022-10-22T07:57:57;16.40;99.90
29803;DHT22;16702;50.898;4.662;2022-10-22T08:00:27;16.40;99.90
29803;DHT22;16702;50.898;4.662;2022-10-22T08:02:58;16.50;99.90
29803;DHT22;16702;50.898;4.662;2022-10-22T08:05:30;16.50;99.90
29803;DHT22;16702;50.898;4.662;2022-10-22T08:08:01;16.50;99.90
29803;DHT22;16702;50.898;4.662;2022-10-22T08:10:31;16.50;99.90
29803;DHT22;16702;50.898;4.662;2022-10-22T08:13:03;16.50;99.90
29803;DHT22;16702;50.898;4.662;2022-10-22T08:15:33;16.50;99.90
29803;DHT22;16702;50.898;4.662;2022-10-22T08:18:04;16.60;99.90
29803;DHT22;16702;50.898;4.662;2022-10-22T08:20:37;16.50;99.90
29803;DHT22;16702;50.898;4.662;2022-10-22T08:23:08;16.50;99.90
29803;DHT22;16702;50.898;4.662;2022-10-22T08:25:39;16.60;99.90
29803;DHT22;16702;50.898;4.662;2022-10-22T08:28:09;16.70;99.90
29803;DHT22;16702;50.898;4.662;2022-10-22T08:30:41;16.70;99.90
29803;DHT22;16702;50.898;4.662;2022-10-22T08:33:14;16.70;99.90
29803;DHT22;16702;50.898;4.662;2022-10-22T08:35:49;16.70;99.90
29803;DHT22;16702;50.898;4.662;2022-10-22T08:38:20;16.70;99.90
29803;DHT22;16702;50.898;4.662;2022-10-22T08:40:52;16.70;99.90
29803;DHT22;16702;50.898;4.662;2022-10-22T08:43:40;16.70;99.90
29803;DHT22;16702;50.898;4.662;2022-10-22T08:46:21;16.70;99.90
29803;DHT22;16702;50.898;4.662;2022-10-22T08:48:54;16.70;99.90
29803;DHT22;16702;50.898;4.662;2022-10-22T08:51:31;16.70;99.90
29803;DHT22;16702;50.898;4.662;2022-10-22T08:54:18;16.70;99.90
29803;DHT22;16702;50.898;4.662;2022-10-22T08:57:01;16.70;99.90
29803;DHT22;16702;50.898;4.662;2022-10-22T08:59:37;16.80;99.90
29803;DHT22;16702;50.898;4.662;2022-10-22T09:02:21;16.80;99.90
29803;DHT22;16702;50.898;4.662;2022-10-22T09:05:03;16.80;99.90
29803;DHT22;16702;50.898;4.662;2022-10-22T09:07:42;16.80;99.90
29803;DHT22;16702;50.898;4.662;2022-10-22T09:10:17;16.90;99.90
29803;DHT22;16702;50.898;4.662;2022-10-22T09:12:48;16.90;99.90
29803;DHT22;16702;50.898;4.662;2022-10-22T09:15:18;16.90;99.90
29803;DHT22;16702;50.898;4.662;2022-10-22T09:20:48;17.00;99.90
29803;DHT22;16702;50.898;4.662;2022-10-22T09:23:28;17.00;99.90
29803;DHT22;16702;50.898;4.662;2022-10-22T09:26:00;16.90;99.90
29803;DHT22;16702;50.898;4.662;2022-10-22T09:28:31;17.00;99.90
29803;DHT22;16702;50.898;4.662;2022-10-22T09:31:01;17.00;99.90
29803;DHT22;16702;50.898;4.662;2022-10-22T09:33:31;17.10;99.90
29803;DHT22;16702;50.898;4.662;2022-10-22T09:36:03;17.30;99.90
29803;DHT22;16702;50.898;4.662;2022-10-22T09:38:39;17.40;99.90
29803;DHT22;16702;50.898;4.662;2022-10-22T09:41:10;17.40;99.90
29803;DHT22;16702;50.898;4.662;2022-10-22T09:43:40;17.30;99.90
29803;DHT22;16702;50.898;4.662;2022-10-22T09:46:15;17.20;99.90
29803;DHT22;16702;50.898;4.662;2022-10-22T09:48:49;17.30;99.90
29803;DHT22;16702;50.898;4.662;2022-10-22T09:51:22;17.30;99.90
29803;DHT22;16702;50.898;4.662;2022-10-22T09:53:59;17.30;99.90
29803;DHT22;16702;50.898;4.662;2022-10-22T09:56:34;17.40;99.90
29803;DHT22;16702;50.898;4.662;2022-10-22T09:59:11;17.40;99.90
29803;DHT22;16702;50.898;4.662;2022-10-22T10:01:43;17.40;99.90
29803;DHT22;16702;50.898;4.662;2022-10-22T10:04:15;17.40;99.90
29803;DHT22;16702;50.898;4.662;2022-10-22T10:06:45;17.40;99.90
29803;DHT22;16702;50.898;4.662;2022-10-22T10:09:26;17.40;99.90
29803;DHT22;16702;50.898;4.662;2022-10-22T10:12:03;17.30;99.90
29803;DHT22;16702;50.898;4.662;2022-10-22T10:14:41;17.30;99.90
29803;DHT22;16702;50.898;4.662;2022-10-22T10:17:20;17.30;99.90
29803;DHT22;16702;50.898;4.662;2022-10-22T10:20:02;17.30;99.90
29803;DHT22;16702;50.898;4.662;2022-10-22T10:22:42;17.40;99.90
29803;DHT22;16702;50.898;4.662;2022-10-22T10:25:29;17.40;99.90
29803;DHT22;16702;50.898;4.662;2022-10-22T10:28:10;17.50;99.90
29803;DHT22;16702;50.898;4.662;2022-10-22T10:30:49;17.70;99.90
29803;DHT22;16702;50.898;4.662;2022-10-22T10:33:30;17.80;99.90
29803;DHT22;16702;50.898;4.662;2022-10-22T10:36:08;17.80;99.90
29803;DHT22;16702;50.898;4.662;2022-10-22T10:38:49;17.70;99.90
29803;DHT22;16702;50.898;4.662;2022-10-22T10:41:32;17.80;99.90
29803;DHT22;16702;50.898;4.662;2022-10-22T10:44:24;17.80;99.90
29803;DHT22;16702;50.898;4.662;2022-10-22T10:47:06;17.80;99.90
29803;DHT22;16702;50.898;4.662;2022-10-22T10:49:40;17.80;99.90
29803;DHT22;16702;50.898;4.662;2022-10-22T10:52:18;17.90;99.90
29803;DHT22;16702;50.898;4.662;2022-10-22T10:54:56;17.80;99.90
29803;DHT22;16702;50.898;4.662;2022-10-22T10:57:41;17.80;99.90
29803;DHT22;16702;50.898;4.662;2022-10-22T11:00:16;17.70;99.90
29803;DHT22;16702;50.898;4.662;2022-10-22T11:05:52;17.70;99.90
29803;DHT22;16702;50.898;4.662;2022-10-22T11:08:27;17.90;99.90
29803;DHT22;16702;50.898;4.662;2022-10-22T11:11:02;18.00;99.90
29803;DHT22;16702;50.898;4.662;2022-10-22T11:13:40;18.20;99.90
29803;DHT22;16702;50.898;4.662;2022-10-22T11:16:18;18.20;99.90
29803;DHT22;16702;50.898;4.662;2022-10-22T11:18:54;18.30;99.90
29803;DHT22;16702;50.898;4.662;2022-10-22T11:21:33;18.30;99.90
29803;DHT22;16702;50.898;4.662;2022-10-22T11:24:11;18.40;99.90
29803;DHT22;16702;50.898;4.662;2022-10-22T11:26:45;18.50;99.90
29803;DHT22;16702;50.898;4.662;2022-10-22T11:29:22;18.70;99.90
29803;DHT22;16702;50.898;4.662;2022-10-22T11:31:58;18.70;99.90
29803;DHT22;16702;50.898;4.662;2022-10-22T11:34:33;18.70;99.90
29803;DHT22;16702;50.898;4.662;2022-10-22T11:37:08;18.60;99.90
29803;DHT22;16702;50.898;4.662;2022-10-22T11:39:42;18.50;99.90
29803;DHT22;16702;50.898;4.662;2022-10-22T11:42:18;18.50;99.90
29803;DHT22;16702;50.898;4.662;2022-10-22T11:45:02;18.40;99.90
29803;DHT22;16702;50.898;4.662;2022-10-22T11:47:37;18.40;99.90
29803;DHT22;16702;50.898;4.662;2022-10-22T11:50:21;18.60;99.90
29803;DHT22;16702;50.898;4.662;2022-10-22T11:53:00;18.80;99.90
29803;DHT22;16702;50.898;4.662;2022-10-22T11:55:41;19.00;99.90
29803;DHT22;16702;50.898;4.662;2022-10-22T11:58:34;19.10;99.90
29803;DHT22;16702;50.898;4.662;2022-10-22T12:01:25;19.20;99.90
29803;DHT22;16702;50.898;4.662;2022-10-22T12:04:14;19.30;99.90
29803;DHT22;16702;50.898;4.662;2022-10-22T12:06:57;19.40;99.90
29803;DHT22;16702;50.898;4.662;2022-10-22T12:09:29;19.50;99.90
29803;DHT22;16702;50.898;4.662;2022-10-22T12:12:11;19.60;99.90
29803;DHT22;16702;50.898;4.662;2022-10-22T12:14:53;19.50;99.90
29803;DHT22;16702;50.898;4.662;2022-10-22T12:17:28;19.30;99.90
29803;DHT22;16702;50.898;4.662;2022-10-22T12:20:03;19.40;99.90
29803;DHT22;16702;50.898;4.662;2022-10-22T12:22:37;19.30;99.90
29803;DHT22;16702;50.898;4.662;2022-10-22T12:25:16;19.60;99.90
29803;DHT22;16702;50.898;4.662;2022-10-22T12:27:50;19.70;99.90
29803;DHT22;16702;50.898;4.662;2022-10-22T12:30:22;19.70;99.90
29803;DHT22;16702;50.898;4.662;2022-10-22T12:32:58;19.60;99.90
29803;DHT22;16702;50.898;4.662;2022-10-22T12:35:30;19.60;99.90
29803;DHT22;16702;50.898;4.662;2022-10-22T12:38:04;19.70;99.90
29803;DHT22;16702;50.898;4.662;2022-10-22T12:40:39;19.70;99.90
29803;DHT22;16702;50.898;4.662;2022-10-22T12:43:16;19.80;99.90
29803;DHT22;16702;50.898;4.662;2022-10-22T12:45:48;19.90;99.90
29803;DHT22;16702;50.898;4.662;2022-10-22T12:48:24;19.90;99.90
29803;DHT22;16702;50.898;4.662;2022-10-22T12:50:58;19.90;99.90
29803;DHT22;16702;50.898;4.662;2022-10-22T12:53:31;19.90;99.90
29803;DHT22;16702;50.898;4.662;2022-10-22T12:56:06;19.90;99.90
29803;DHT22;16702;50.898;4.662;2022-10-22T12:58:42;19.70;99.90
29803;DHT22;16702;50.898;4.662;2022-10-22T13:01:14;19.80;99.90
29803;DHT22;16702;50.898;4.662;2022-10-22T13:03:50;19.80;99.90
29803;DHT22;16702;50.898;4.662;2022-10-22T13:06:24;19.90;99.90
29803;DHT22;16702;50.898;4.662;2022-10-22T13:09:05;19.90;99.90
29803;DHT22;16702;50.898;4.662;2022-10-22T13:11:39;20.00;99.90
29803;DHT22;16702;50.898;4.662;2022-10-22T13:14:20;20.00;99.90
29803;DHT22;16702;50.898;4.662;2022-10-22T13:17:05;20.00;99.90
29803;DHT22;16702;50.898;4.662;2022-10-22T13:19:41;19.90;99.90
29803;DHT22;16702;50.898;4.662;2022-10-22T13:22:36;20.00;99.90
29803;DHT22;16702;50.898;4.662;2022-10-22T13:25:22;19.90;99.90
29803;DHT22;16702;50.898;4.662;2022-10-22T13:27:55;20.00;99.90
29803;DHT22;16702;50.898;4.662;2022-10-22T13:30:28;20.00;99.90
29803;DHT22;16702;50.898;4.662;2022-10-22T13:33:00;20.00;99.90
29803;DHT22;16702;50.898;4.662;2022-10-22T13:35:35;19.90;99.90
29803;DHT22;16702;50.898;4.662;2022-10-22T13:38:11;20.00;99.90
29803;DHT22;16702;50.898;4.662;2022-10-22T13:40:44;19.90;99.90
29803;DHT22;16702;50.898;4.662;2022-10-22T13:43:15;19.90;99.90
29803;DHT22;16702;50.898;4.662;2022-10-22T13:45:47;19.90;99.90
29803;DHT22;16702;50.898;4.662;2022-10-22T13:48:19;20.00;99.90
29803;DHT22;16702;50.898;4.662;2022-10-22T13:50:53;20.00;99.90
29803;DHT22;16702;50.898;4.662;2022-10-22T13:53:25;20.00;99.90
29803;DHT22;16702;50.898;4.662;2022-10-22T13:55:55;20.00;99.90
29803;DHT22;16702;50.898;4.662;2022-10-22T13:58:26;20.00;99.90
29803;DHT22;16702;50.898;4.662;2022-10-22T14:00:57;19.90;99.90
29803;DHT22;16702;50.898;4.662;2022-10-22T14:03:31;20.00;99.90
29803;DHT22;16702;50.898;4.662;2022-10-22T14:06:09;19.90;99.90
29803;DHT22;16702;50.898;4.662;2022-10-22T14:08:41;19.80;99.90
29803;DHT22;16702;50.898;4.662;2022-10-22T14:11:12;19.70;99.90
29803;DHT22;16702;50.898;4.662;2022-10-22T14:13:42;19.80;99.90
29803;DHT22;16702;50.898;4.662;2022-10-22T14:16:16;20.00;99.90
29803;DHT22;16702;50.898;4.662;2022-10-22T14:18:48;20.00;99.90
29803;DHT22;16702;50.898;4.662;2022-10-22T14:21:21;20.00;99.90
29803;DHT22;16702;50.898;4.662;2022-10-22T14:23:52;20.00;99.90
29803;DHT22;16702;50.898;4.662;2022-10-22T14:26:24;20.00;99.90
29803;DHT22;16702;50.898;4.662;2022-10-22T14:28:59;20.00;99.90
29803;DHT22;16702;50.898;4.662;2022-10-22T14:31:38;19.90;99.90
29803;DHT22;16702;50.898;4.662;2022-10-22T14:34:13;19.90;99.90
29803;DHT22;16702;50.898;4.662;2022-10-22T14:36:46;19.80;99.90
29803;DHT22;16702;50.898;4.662;2022-10-22T14:39:16;19.80;99.90
29803;DHT22;16702;50.898;4.662;2022-10-22T14:41:47;19.70;99.90
29803;DHT22;16702;50.898;4.662;2022-10-22T14:44:18;19.70;99.90
29803;DHT22;16702;50.898;4.662;2022-10-22T14:46:48;19.70;99.90
29803;DHT22;16702;50.898;4.662;2022-10-22T14:49:22;19.70;99.90
29803;DHT22;16702;50.898;4.662;2022-10-22T14:51:55;19.70;99.90
29803;DHT22;16702;50.898;4.662;2022-10-22T14:54:25;19.70;99.90
29803;DHT22;16702;50.898;4.662;2022-10-22T14:56:55;19.80;99.90
29803;DHT22;16702;50.898;4.662;2022-10-22T14:59:26;19.80;99.90
29803;DHT22;16702;50.898;4.662;2022-10-22T15:01:56;19.80;99.90
29803;DHT22;16702;50.898;4.662;2022-10-22T15:04:27;19.80;99.90
29803;DHT22;16702;50.898;4.662;2022-10-22T15:07:00;19.80;99.90
29803;DHT22;16702;50.898;4.662;2022-10-22T15:09:30;19.80;99.90
29803;DHT22;16702;50.898;4.662;2022-10-22T15:12:00;19.80;99.90
29803;DHT22;16702;50.898;4.662;2022-10-22T15:14:31;19.80;99.90
29803;DHT22;16702;50.898;4.662;2022-10-22T15:17:01;19.80;99.90
29803;DHT22;16702;50.898;4.662;2022-10-22T15:19:31;19.70;99.90
29803;DHT22;16702;50.898;4.662;2022-10-22T15:22:04;19.70;99.90
29803;DHT22;16702;50.898;4.662;2022-10-22T15:24:35;19.70;99.90
29803;DHT22;16702;50.898;4.662;2022-10-22T15:27:06;19.70;99.90
29803;DHT22;16702;50.898;4.662;2022-10-22T15:29:36;19.70;99.90
29803;DHT22;16702;50.898;4.662;2022-10-22T15:32:07;19.60;99.90
29803;DHT22;16702;50.898;4.662;2022-10-22T15:34:39;19.50;99.90
29803;DHT22;16702;50.898;4.662;2022-10-22T15:37:15;19.50;99.90
29803;DHT22;16702;50.898;4.662;2022-10-22T15:39:45;19.50;99.90
29803;DHT22;16702;50.898;4.662;2022-10-22T15:42:16;19.50;99.90
29803;DHT22;16702;50.898;4.662;2022-10-22T15:44:46;19.50;99.90
29803;DHT22;16702;50.898;4.662;2022-10-22T15:47:17;19.50;99.90
29803;DHT22;16702;50.898;4.662;2022-10-22T15:49:47;19.50;99.90
29803;DHT22;16702;50.898;4.662;2022-10-22T15:52:20;19.50;99.90
29803;DHT22;16702;50.898;4.662;2022-10-22T15:54:51;19.40;99.90
29803;DHT22;16702;50.898;4.662;2022-10-22T15:57:21;19.40;99.90
29803;DHT22;16702;50.898;4.662;2022-10-22T15:59:52;19.40;99.90
29803;DHT22;16702;50.898;4.662;2022-10-22T16:02:22;19.40;99.90
29803;DHT22;16702;50.898;4.662;2022-10-22T16:04:53;19.30;99.90
29803;DHT22;16702;50.898;4.662;2022-10-22T16:07:29;19.30;99.90
29803;DHT22;16702;50.898;4.662;2022-10-22T16:09:59;19.30;99.90
29803;DHT22;16702;50.898;4.662;2022-10-22T16:12:29;19.20;99.90
29803;DHT22;16702;50.898;4.662;2022-10-22T16:15:02;19.20;99.90